sensor_id;sensor_type;location;lat;lon;timestamp;P1;durP1;ratioP1;P2;durP2;ratioP2
8317;SDS011;4196;48.926;8.964;2023-08-08T00:02:14;1.57;;;1.30;;
8317;SDS011;4196;48.926;8.964;2023-08-08T00:05:01;2.00;;;1.40;;
8317;SDS011;4196;48.926;8.964;2023-08-08T00:07:48;1.97;;;1.43;;
8317;SDS011;4196;48.926;8.964;2023-08-08T00:10:35;1.47;;;1.30;;
8317;SDS011;4196;48.926;8.964;2023-08-08T00:13:21;2.23;;;1.10;;
8317;SDS011;4196;48.926;8.964;2023-08-08T00:16:08;1.60;;;1.30;;
8317;SDS011;4196;48.926;8.964;2023-08-08T00:18:54;2.70;;;1.30;;
8317;SDS011;4196;48.926;8.964;2023-08-08T00:21:41;1.97;;;1.20;;
8317;SDS011;4196;48.926;8.964;2023-08-08T00:24:27;5.60;;;1.20;;
8317;SDS011;4196;48.926;8.964;2023-08-08T00:27:14;2.00;;;1.60;;
8317;SDS011;4196;48.926;8.964;2023-08-08T00:30:00;3.30;;;1.37;;
8317;SDS011;4196;48.926;8.964;2023-08-08T00:32:47;2.37;;;1.20;;
8317;SDS011;4196;48.926;8.964;2023-08-08T00:35:34;1.40;;;1.30;;
8317;SDS011;4196;48.926;8.964;2023-08-08T00:38:20;1.30;;;1.20;;
8317;SDS011;4196;48.926;8.964;2023-08-08T00:41:06;1.13;;;1.10;;
8317;SDS011;4196;48.926;8.964;2023-08-08T00:43:53;1.03;;;1.03;;
8317;SDS011;4196;48.926;8.964;2023-08-08T00:46:41;1.73;;;1.60;;
8317;SDS011;4196;48.926;8.964;2023-08-08T00:49:28;1.30;;;1.20;;
8317;SDS011;4196;48.926;8.964;2023-08-08T00:52:15;3.90;;;1.50;;
8317;SDS011;4196;48.926;8.964;2023-08-08T00:55:02;1.57;;;1.47;;
8317;SDS011;4196;48.926;8.964;2023-08-08T00:57:49;1.57;;;1.37;;
8317;SDS011;4196;48.926;8.964;2023-08-08T01:00:36;1.47;;;1.37;;
8317;SDS011;4196;48.926;8.964;2023-08-08T01:03:23;1.40;;;1.40;;
8317;SDS011;4196;48.926;8.964;2023-08-08T01:06:16;1.63;;;1.50;;
8317;SDS011;4196;48.926;8.964;2023-08-08T01:09:17;1.30;;;1.20;;
8317;SDS011;4196;48.926;8.964;2023-08-08T01:16:53;1.30;;;1.20;;
8317;SDS011;4196;48.926;8.964;2023-08-08T01:19:45;2.47;;;1.30;;
8317;SDS011;4196;48.926;8.964;2023-08-08T01:22:33;1.43;;;1.33;;
8317;SDS011;4196;48.926;8.964;2023-08-08T01:25:23;1.37;;;1.27;;
8317;SDS011;4196;48.926;8.964;2023-08-08T01:28:10;2.20;;;1.40;;
8317;SDS011;4196;48.926;8.964;2023-08-08T01:30:56;1.40;;;1.30;;
8317;SDS011;4196;48.926;8.964;2023-08-08T01:33:43;1.87;;;1.30;;
8317;SDS011;4196;48.926;8.964;2023-08-08T01:36:36;1.77;;;1.40;;
8317;SDS011;4196;48.926;8.964;2023-08-08T01:39:29;1.53;;;1.40;;
8317;SDS011;4196;48.926;8.964;2023-08-08T01:42:18;1.93;;;1.20;;
8317;SDS011;4196;48.926;8.964;2023-08-08T01:45:07;2.50;;;1.50;;
8317;SDS011;4196;48.926;8.964;2023-08-08T01:47:55;1.73;;;1.10;;
8317;SDS011;4196;48.926;8.964;2023-08-08T01:50:42;2.03;;;1.23;;
8317;SDS011;4196;48.926;8.964;2023-08-08T01:53:28;2.33;;;1.70;;
8317;SDS011;4196;48.926;8.964;2023-08-08T01:56:15;1.73;;;1.57;;
8317;SDS011;4196;48.926;8.964;2023-08-08T01:59:01;2.70;;;1.50;;
8317;SDS011;4196;48.926;8.964;2023-08-08T02:01:48;1.40;;;1.30;;
8317;SDS011;4196;48.926;8.964;2023-08-08T02:04:35;2.97;;;1.30;;
8317;SDS011;4196;48.926;8.964;2023-08-08T02:07:21;2.83;;;1.60;;
8317;SDS011;4196;48.926;8.964;2023-08-08T02:10:08;1.30;;;1.20;;
8317;SDS011;4196;48.926;8.964;2023-08-08T02:12:55;2.17;;;1.30;;
8317;SDS011;4196;48.926;8.964;2023-08-08T02:15:42;1.77;;;1.40;;
8317;SDS011;4196;48.926;8.964;2023-08-08T02:18:28;1.37;;;1.20;;
8317;SDS011;4196;48.926;8.964;2023-08-08T02:21:15;2.60;;;1.20;;
8317;SDS011;4196;48.926;8.964;2023-08-08T02:24:02;1.60;;;1.47;;
8317;SDS011;4196;48.926;8.964;2023-08-08T02:26:50;1.07;;;1.07;;
8317;SDS011;4196;48.926;8.964;2023-08-08T02:29:36;1.30;;;1.20;;
8317;SDS011;4196;48.926;8.964;2023-08-08T02:32:23;1.20;;;1.10;;
8317;SDS011;4196;48.926;8.964;2023-08-08T02:35:12;1.30;;;1.20;;
8317;SDS011;4196;48.926;8.964;2023-08-08T02:38:01;1.93;;;1.50;;
8317;SDS011;4196;48.926;8.964;2023-08-08T02:40:47;2.33;;;1.53;;
8317;SDS011;4196;48.926;8.964;2023-08-08T02:43:35;2.50;;;1.40;;
8317;SDS011;4196;48.926;8.964;2023-08-08T02:46:21;1.60;;;1.30;;
8317;SDS011;4196;48.926;8.964;2023-08-08T02:49:08;1.43;;;1.33;;
8317;SDS011;4196;48.926;8.964;2023-08-08T02:51:55;2.03;;;1.43;;
8317;SDS011;4196;48.926;8.964;2023-08-08T02:54:45;2.00;;;1.40;;
8317;SDS011;4196;48.926;8.964;2023-08-08T02:57:32;1.63;;;1.33;;
8317;SDS011;4196;48.926;8.964;2023-08-08T03:00:19;2.30;;;1.63;;
8317;SDS011;4196;48.926;8.964;2023-08-08T03:03:09;1.40;;;1.30;;
8317;SDS011;4196;48.926;8.964;2023-08-08T03:05:55;1.87;;;1.50;;
8317;SDS011;4196;48.926;8.964;2023-08-08T03:08:42;1.90;;;1.40;;
8317;SDS011;4196;48.926;8.964;2023-08-08T03:11:29;1.73;;;1.50;;
8317;SDS011;4196;48.926;8.964;2023-08-08T03:14:15;2.00;;;1.40;;
8317;SDS011;4196;48.926;8.964;2023-08-08T03:17:02;3.37;;;1.33;;
8317;SDS011;4196;48.926;8.964;2023-08-08T03:19:50;1.50;;;1.40;;
8317;SDS011;4196;48.926;8.964;2023-08-08T03:22:37;1.83;;;1.40;;
8317;SDS011;4196;48.926;8.964;2023-08-08T03:25:26;1.50;;;1.40;;
8317;SDS011;4196;48.926;8.964;2023-08-08T03:28:13;1.60;;;1.50;;
8317;SDS011;4196;48.926;8.964;2023-08-08T03:30:59;2.27;;;1.67;;
8317;SDS011;4196;48.926;8.964;2023-08-08T03:33:51;2.63;;;1.60;;
8317;SDS011;4196;48.926;8.964;2023-08-08T03:36:38;2.43;;;1.60;;
8317;SDS011;4196;48.926;8.964;2023-08-08T03:39:26;3.63;;;1.60;;
8317;SDS011;4196;48.926;8.964;2023-08-08T03:42:14;1.83;;;1.50;;
8317;SDS011;4196;48.926;8.964;2023-08-08T03:45:01;3.73;;;2.00;;
8317;SDS011;4196;48.926;8.964;2023-08-08T03:47:48;3.10;;;1.77;;
8317;SDS011;4196;48.926;8.964;2023-08-08T03:50:35;3.17;;;1.93;;
8317;SDS011;4196;48.926;8.964;2023-08-08T03:53:22;2.10;;;1.90;;
8317;SDS011;4196;48.926;8.964;2023-08-08T03:56:08;1.80;;;1.70;;
8317;SDS011;4196;48.926;8.964;2023-08-08T03:58:55;2.53;;;2.03;;
8317;SDS011;4196;48.926;8.964;2023-08-08T04:01:43;3.73;;;2.07;;
8317;SDS011;4196;48.926;8.964;2023-08-08T04:04:30;2.97;;;2.00;;
8317;SDS011;4196;48.926;8.964;2023-08-08T04:07:16;2.07;;;1.90;;
8317;SDS011;4196;48.926;8.964;2023-08-08T04:10:03;3.90;;;2.27;;
8317;SDS011;4196;48.926;8.964;2023-08-08T04:12:51;2.57;;;2.03;;
8317;SDS011;4196;48.926;8.964;2023-08-08T04:15:37;2.60;;;1.97;;
8317;SDS011;4196;48.926;8.964;2023-08-08T04:18:25;4.30;;;1.73;;
8317;SDS011;4196;48.926;8.964;2023-08-08T04:21:11;3.27;;;2.10;;
8317;SDS011;4196;48.926;8.964;2023-08-08T04:23:58;2.57;;;1.90;;
8317;SDS011;4196;48.926;8.964;2023-08-08T04:26:45;2.67;;;2.23;;
8317;SDS011;4196;48.926;8.964;2023-08-08T04:29:32;3.57;;;2.40;;
8317;SDS011;4196;48.926;8.964;2023-08-08T04:32:18;4.60;;;3.00;;
8317;SDS011;4196;48.926;8.964;2023-08-08T04:35:05;2.60;;;2.40;;
8317;SDS011;4196;48.926;8.964;2023-08-08T04:37:52;4.37;;;2.50;;
8317;SDS011;4196;48.926;8.964;2023-08-08T04:40:39;3.83;;;2.40;;
8317;SDS011;4196;48.926;8.964;2023-08-08T04:43:25;2.97;;;2.40;;
8317;SDS011;4196;48.926;8.964;2023-08-08T04:46:14;3.93;;;2.47;;
8317;SDS011;4196;48.926;8.964;2023-08-08T04:49:00;2.90;;;2.17;;
8317;SDS011;4196;48.926;8.964;2023-08-08T04:51:47;3.83;;;2.17;;
8317;SDS011;4196;48.926;8.964;2023-08-08T04:54:33;4.37;;;2.10;;
8317;SDS011;4196;48.926;8.964;2023-08-08T04:57:19;3.60;;;2.10;;
8317;SDS011;4196;48.926;8.964;2023-08-08T05:00:06;4.53;;;2.40;;
8317;SDS011;4196;48.926;8.964;2023-08-08T05:02:54;3.33;;;2.00;;
8317;SDS011;4196;48.926;8.964;2023-08-08T05:05:41;4.60;;;1.90;;
8317;SDS011;4196;48.926;8.964;2023-08-08T05:08:27;2.77;;;1.83;;
8317;SDS011;4196;48.926;8.964;2023-08-08T05:11:14;3.97;;;2.07;;
8317;SDS011;4196;48.926;8.964;2023-08-08T05:14:01;4.70;;;2.00;;
8317;SDS011;4196;48.926;8.964;2023-08-08T05:16:48;2.87;;;2.10;;
8317;SDS011;4196;48.926;8.964;2023-08-08T05:19:35;3.10;;;1.90;;
8317;SDS011;4196;48.926;8.964;2023-08-08T05:22:21;2.90;;;1.60;;
8317;SDS011;4196;48.926;8.964;2023-08-08T05:25:08;2.80;;;2.07;;
8317;SDS011;4196;48.926;8.964;2023-08-08T05:27:55;2.20;;;1.50;;
8317;SDS011;4196;48.926;8.964;2023-08-08T05:30:41;2.50;;;1.67;;
8317;SDS011;4196;48.926;8.964;2023-08-08T05:33:28;1.90;;;1.70;;
8317;SDS011;4196;48.926;8.964;2023-08-08T05:36:17;5.03;;;2.37;;
8317;SDS011;4196;48.926;8.964;2023-08-08T05:39:03;2.40;;;1.80;;
8317;SDS011;4196;48.926;8.964;2023-08-08T05:41:50;2.80;;;1.83;;
8317;SDS011;4196;48.926;8.964;2023-08-08T05:44:36;2.00;;;1.80;;
8317;SDS011;4196;48.926;8.964;2023-08-08T05:47:23;3.83;;;2.20;;
8317;SDS011;4196;48.926;8.964;2023-08-08T05:50:09;2.37;;;1.60;;
8317;SDS011;4196;48.926;8.964;2023-08-08T05:52:56;2.20;;;1.80;;
8317;SDS011;4196;48.926;8.964;2023-08-08T05:55:42;2.47;;;1.93;;
8317;SDS011;4196;48.926;8.964;2023-08-08T05:58:29;2.03;;;1.70;;
8317;SDS011;4196;48.926;8.964;2023-08-08T06:01:15;4.07;;;1.70;;
8317;SDS011;4196;48.926;8.964;2023-08-08T06:04:02;3.70;;;1.87;;
8317;SDS011;4196;48.926;8.964;2023-08-08T06:06:49;3.10;;;2.10;;
8317;SDS011;4196;48.926;8.964;2023-08-08T06:09:36;1.70;;;1.60;;
8317;SDS011;4196;48.926;8.964;2023-08-08T06:12:26;2.90;;;2.10;;
8317;SDS011;4196;48.926;8.964;2023-08-08T06:15:12;2.40;;;2.20;;
8317;SDS011;4196;48.926;8.964;2023-08-08T06:17:59;4.13;;;1.83;;
8317;SDS011;4196;48.926;8.964;2023-08-08T06:20:45;2.23;;;1.30;;
8317;SDS011;4196;48.926;8.964;2023-08-08T06:23:32;2.07;;;1.50;;
8317;SDS011;4196;48.926;8.964;2023-08-08T06:26:19;1.73;;;1.50;;
8317;SDS011;4196;48.926;8.964;2023-08-08T06:29:07;2.60;;;1.50;;
8317;SDS011;4196;48.926;8.964;2023-08-08T06:31:53;3.60;;;1.60;;
8317;SDS011;4196;48.926;8.964;2023-08-08T06:34:40;1.30;;;1.20;;
8317;SDS011;4196;48.926;8.964;2023-08-08T06:37:26;2.53;;;1.17;;
8317;SDS011;4196;48.926;8.964;2023-08-08T06:40:12;1.90;;;1.30;;
8317;SDS011;4196;48.926;8.964;2023-08-08T06:42:59;1.60;;;1.30;;
8317;SDS011;4196;48.926;8.964;2023-08-08T06:45:45;1.27;;;1.10;;
8317;SDS011;4196;48.926;8.964;2023-08-08T06:48:33;2.73;;;1.30;;
8317;SDS011;4196;48.926;8.964;2023-08-08T06:51:20;2.27;;;1.30;;
8317;SDS011;4196;48.926;8.964;2023-08-08T06:54:07;3.77;;;1.50;;
8317;SDS011;4196;48.926;8.964;2023-08-08T06:56:54;2.73;;;1.20;;
8317;SDS011;4196;48.926;8.964;2023-08-08T06:59:46;1.30;;;1.20;;
8317;SDS011;4196;48.926;8.964;2023-08-08T07:02:36;1.83;;;1.30;;
8317;SDS011;4196;48.926;8.964;2023-08-08T07:05:23;2.37;;;1.10;;
8317;SDS011;4196;48.926;8.964;2023-08-08T07:08:09;1.30;;;1.20;;
8317;SDS011;4196;48.926;8.964;2023-08-08T07:10:59;2.13;;;1.50;;
8317;SDS011;4196;48.926;8.964;2023-08-08T07:13:46;2.53;;;1.63;;
8317;SDS011;4196;48.926;8.964;2023-08-08T07:16:32;1.30;;;1.20;;
8317;SDS011;4196;48.926;8.964;2023-08-08T07:19:18;1.50;;;1.40;;
8317;SDS011;4196;48.926;8.964;2023-08-08T07:22:05;2.63;;;1.23;;
8317;SDS011;4196;48.926;8.964;2023-08-08T07:24:51;1.33;;;1.23;;
8317;SDS011;4196;48.926;8.964;2023-08-08T07:27:38;1.60;;;1.20;;
8317;SDS011;4196;48.926;8.964;2023-08-08T07:30:24;1.97;;;1.10;;
8317;SDS011;4196;48.926;8.964;2023-08-08T07:33:12;1.17;;;1.07;;
8317;SDS011;4196;48.926;8.964;2023-08-08T07:36:03;1.20;;;1.10;;
8317;SDS011;4196;48.926;8.964;2023-08-08T07:38:50;2.33;;;1.30;;
8317;SDS011;4196;48.926;8.964;2023-08-08T07:41:37;2.13;;;1.13;;
8317;SDS011;4196;48.926;8.964;2023-08-08T07:44:23;1.33;;;1.23;;
8317;SDS011;4196;48.926;8.964;2023-08-08T07:47:10;1.90;;;1.10;;
8317;SDS011;4196;48.926;8.964;2023-08-08T07:49:58;1.47;;;1.10;;
8317;SDS011;4196;48.926;8.964;2023-08-08T07:52:46;2.10;;;0.97;;
8317;SDS011;4196;48.926;8.964;2023-08-08T07:55:33;1.10;;;1.10;;
8317;SDS011;4196;48.926;8.964;2023-08-08T07:58:20;2.60;;;1.40;;
8317;SDS011;4196;48.926;8.964;2023-08-08T08:01:08;2.47;;;1.20;;
8317;SDS011;4196;48.926;8.964;2023-08-08T08:03:55;1.43;;;1.33;;
8317;SDS011;4196;48.926;8.964;2023-08-08T08:06:42;1.50;;;1.30;;
8317;SDS011;4196;48.926;8.964;2023-08-08T08:09:30;3.83;;;1.40;;
8317;SDS011;4196;48.926;8.964;2023-08-08T08:12:17;1.10;;;1.10;;
8317;SDS011;4196;48.926;8.964;2023-08-08T08:15:05;2.50;;;1.03;;
8317;SDS011;4196;48.926;8.964;2023-08-08T08:17:52;1.33;;;1.10;;
8317;SDS011;4196;48.926;8.964;2023-08-08T08:20:39;1.50;;;1.00;;
8317;SDS011;4196;48.926;8.964;2023-08-08T08:23:26;1.50;;;1.30;;
8317;SDS011;4196;48.926;8.964;2023-08-08T08:26:12;2.47;;;1.57;;
8317;SDS011;4196;48.926;8.964;2023-08-08T08:28:59;1.53;;;1.13;;
8317;SDS011;4196;48.926;8.964;2023-08-08T08:31:45;2.83;;;1.30;;
8317;SDS011;4196;48.926;8.964;2023-08-08T08:34:32;3.57;;;1.20;;
8317;SDS011;4196;48.926;8.964;2023-08-08T08:37:19;4.47;;;1.30;;
8317;SDS011;4196;48.926;8.964;2023-08-08T08:40:05;2.43;;;1.20;;
8317;SDS011;4196;48.926;8.964;2023-08-08T08:42:52;1.23;;;1.13;;
8317;SDS011;4196;48.926;8.964;2023-08-08T08:45:39;1.43;;;1.30;;
8317;SDS011;4196;48.926;8.964;2023-08-08T08:48:29;1.27;;;1.17;;
8317;SDS011;4196;48.926;8.964;2023-08-08T08:51:19;1.37;;;1.07;;
8317;SDS011;4196;48.926;8.964;2023-08-08T08:54:07;1.07;;;0.97;;
8317;SDS011;4196;48.926;8.964;2023-08-08T08:56:53;1.27;;;1.17;;
8317;SDS011;4196;48.926;8.964;2023-08-08T08:59:41;3.00;;;1.23;;
8317;SDS011;4196;48.926;8.964;2023-08-08T09:02:28;1.23;;;1.10;;
8317;SDS011;4196;48.926;8.964;2023-08-08T09:05:15;2.30;;;1.03;;
8317;SDS011;4196;48.926;8.964;2023-08-08T09:08:02;1.17;;;1.13;;
8317;SDS011;4196;48.926;8.964;2023-08-08T09:10:48;1.80;;;1.40;;
8317;SDS011;4196;48.926;8.964;2023-08-08T09:13:37;1.47;;;1.10;;
8317;SDS011;4196;48.926;8.964;2023-08-08T09:16:27;2.73;;;1.20;;
8317;SDS011;4196;48.926;8.964;2023-08-08T09:19:17;1.53;;;1.13;;
8317;SDS011;4196;48.926;8.964;2023-08-08T09:22:06;2.10;;;1.20;;
8317;SDS011;4196;48.926;8.964;2023-08-08T09:24:52;1.63;;;1.20;;
8317;SDS011;4196;48.926;8.964;2023-08-08T09:27:40;2.63;;;1.40;;
8317;SDS011;4196;48.926;8.964;2023-08-08T09:30:27;1.53;;;1.20;;
8317;SDS011;4196;48.926;8.964;2023-08-08T09:33:17;2.03;;;1.53;;
8317;SDS011;4196;48.926;8.964;2023-08-08T09:36:04;2.13;;;1.00;;
8317;SDS011;4196;48.926;8.964;2023-08-08T09:38:51;1.43;;;1.20;;
8317;SDS011;4196;48.926;8.964;2023-08-08T09:41:38;1.20;;;1.10;;
8317;SDS011;4196;48.926;8.964;2023-08-08T09:44:28;2.87;;;1.30;;
8317;SDS011;4196;48.926;8.964;2023-08-08T09:47:15;2.10;;;1.17;;
8317;SDS011;4196;48.926;8.964;2023-08-08T09:50:02;1.17;;;1.07;;
8317;SDS011;4196;48.926;8.964;2023-08-08T09:52:52;2.17;;;1.30;;
8317;SDS011;4196;48.926;8.964;2023-08-08T09:55:41;1.40;;;1.00;;
8317;SDS011;4196;48.926;8.964;2023-08-08T09:58:28;1.27;;;1.00;;
8317;SDS011;4196;48.926;8.964;2023-08-08T10:01:15;2.37;;;1.23;;
8317;SDS011;4196;48.926;8.964;2023-08-08T10:04:02;2.63;;;1.00;;
8317;SDS011;4196;48.926;8.964;2023-08-08T10:06:49;1.10;;;1.00;;
8317;SDS011;4196;48.926;8.964;2023-08-08T10:09:35;1.67;;;1.20;;
8317;SDS011;4196;48.926;8.964;2023-08-08T10:12:24;1.17;;;1.07;;
8317;SDS011;4196;48.926;8.964;2023-08-08T10:15:12;1.53;;;1.10;;
8317;SDS011;4196;48.926;8.964;2023-08-08T10:17:58;1.67;;;1.20;;
8317;SDS011;4196;48.926;8.964;2023-08-08T10:20:47;4.37;;;1.50;;
8317;SDS011;4196;48.926;8.964;2023-08-08T10:23:36;2.10;;;0.90;;
8317;SDS011;4196;48.926;8.964;2023-08-08T10:26:23;1.93;;;1.37;;
8317;SDS011;4196;48.926;8.964;2023-08-08T10:29:17;1.60;;;1.30;;
8317;SDS011;4196;48.926;8.964;2023-08-08T10:32:06;3.47;;;1.10;;
8317;SDS011;4196;48.926;8.964;2023-08-08T10:34:54;1.90;;;1.10;;
8317;SDS011;4196;48.926;8.964;2023-08-08T10:37:54;2.80;;;1.07;;
8317;SDS011;4196;48.926;8.964;2023-08-08T10:40:42;3.57;;;1.30;;
8317;SDS011;4196;48.926;8.964;2023-08-08T10:43:30;1.33;;;1.10;;
8317;SDS011;4196;48.926;8.964;2023-08-08T10:46:26;1.37;;;1.10;;
8317;SDS011;4196;48.926;8.964;2023-08-08T10:49:15;2.20;;;1.40;;
8317;SDS011;4196;48.926;8.964;2023-08-08T10:52:03;1.20;;;0.90;;
8317;SDS011;4196;48.926;8.964;2023-08-08T10:54:53;1.83;;;1.13;;
8317;SDS011;4196;48.926;8.964;2023-08-08T10:57:41;1.67;;;1.43;;
8317;SDS011;4196;48.926;8.964;2023-08-08T11:00:28;2.93;;;1.20;;
8317;SDS011;4196;48.926;8.964;2023-08-08T11:03:17;2.77;;;1.30;;
8317;SDS011;4196;48.926;8.964;2023-08-08T11:06:08;3.83;;;1.30;;
8317;SDS011;4196;48.926;8.964;2023-08-08T11:08:55;2.60;;;1.40;;
8317;SDS011;4196;48.926;8.964;2023-08-08T11:11:43;1.50;;;1.20;;
8317;SDS011;4196;48.926;8.964;2023-08-08T11:14:31;1.47;;;1.20;;
8317;SDS011;4196;48.926;8.964;2023-08-08T11:17:17;2.40;;;1.20;;
8317;SDS011;4196;48.926;8.964;2023-08-08T11:20:04;2.83;;;1.60;;
8317;SDS011;4196;48.926;8.964;2023-08-08T11:22:55;1.30;;;1.20;;
8317;SDS011;4196;48.926;8.964;2023-08-08T11:25:43;1.57;;;1.30;;
8317;SDS011;4196;48.926;8.964;2023-08-08T11:28:31;1.13;;;0.90;;
8317;SDS011;4196;48.926;8.964;2023-08-08T11:31:20;3.03;;;1.00;;
8317;SDS011;4196;48.926;8.964;2023-08-08T11:34:08;1.57;;;1.20;;
8317;SDS011;4196;48.926;8.964;2023-08-08T11:36:57;1.77;;;1.37;;
8317;SDS011;4196;48.926;8.964;2023-08-08T11:39:45;1.07;;;0.97;;
8317;SDS011;4196;48.926;8.964;2023-08-08T11:42:32;1.60;;;1.40;;
8317;SDS011;4196;48.926;8.964;2023-08-08T11:45:19;1.20;;;1.10;;
8317;SDS011;4196;48.926;8.964;2023-08-08T11:48:07;1.60;;;1.50;;
8317;SDS011;4196;48.926;8.964;2023-08-08T11:50:54;1.53;;;1.00;;
8317;SDS011;4196;48.926;8.964;2023-08-08T11:53:50;4.27;;;1.30;;
8317;SDS011;4196;48.926;8.964;2023-08-08T11:56:38;1.33;;;1.20;;
8317;SDS011;4196;48.926;8.964;2023-08-08T11:59:24;2.07;;;1.20;;
8317;SDS011;4196;48.926;8.964;2023-08-08T12:02:10;1.07;;;1.07;;
8317;SDS011;4196;48.926;8.964;2023-08-08T12:05:03;1.10;;;1.00;;
8317;SDS011;4196;48.926;8.964;2023-08-08T12:07:55;0.80;;;0.80;;
8317;SDS011;4196;48.926;8.964;2023-08-08T12:10:46;1.37;;;1.13;;
8317;SDS011;4196;48.926;8.964;2023-08-08T12:13:43;1.83;;;0.90;;
8317;SDS011;4196;48.926;8.964;2023-08-08T12:16:30;2.80;;;1.00;;
8317;SDS011;4196;48.926;8.964;2023-08-08T12:19:22;1.13;;;1.00;;
8317;SDS011;4196;48.926;8.964;2023-08-08T12:22:10;1.70;;;1.20;;
8317;SDS011;4196;48.926;8.964;2023-08-08T12:24:57;2.50;;;1.00;;
8317;SDS011;4196;48.926;8.964;2023-08-08T12:27:44;2.80;;;1.13;;
8317;SDS011;4196;48.926;8.964;2023-08-08T12:30:31;4.23;;;1.10;;
8317;SDS011;4196;48.926;8.964;2023-08-08T12:33:17;0.80;;;0.80;;
8317;SDS011;4196;48.926;8.964;2023-08-08T12:36:04;0.83;;;0.83;;
8317;SDS011;4196;48.926;8.964;2023-08-08T12:38:51;1.03;;;0.93;;
8317;SDS011;4196;48.926;8.964;2023-08-08T12:41:37;1.47;;;1.37;;
8317;SDS011;4196;48.926;8.964;2023-08-08T12:44:24;0.93;;;0.83;;
8317;SDS011;4196;48.926;8.964;2023-08-08T12:47:10;2.73;;;1.30;;
8317;SDS011;4196;48.926;8.964;2023-08-08T12:49:59;2.90;;;1.20;;
8317;SDS011;4196;48.926;8.964;2023-08-08T12:52:46;1.03;;;0.93;;
8317;SDS011;4196;48.926;8.964;2023-08-08T12:55:32;2.27;;;1.20;;
8317;SDS011;4196;48.926;8.964;2023-08-08T12:58:18;1.10;;;1.00;;
8317;SDS011;4196;48.926;8.964;2023-08-08T13:01:05;1.30;;;1.20;;
8317;SDS011;4196;48.926;8.964;2023-08-08T13:03:52;1.67;;;1.27;;
8317;SDS011;4196;48.926;8.964;2023-08-08T13:06:58;1.00;;;0.90;;
8317;SDS011;4196;48.926;8.964;2023-08-08T13:09:46;1.30;;;1.20;;
8317;SDS011;4196;48.926;8.964;2023-08-08T13:12:32;1.30;;;1.00;;
8317;SDS011;4196;48.926;8.964;2023-08-08T13:15:19;1.33;;;0.97;;
8317;SDS011;4196;48.926;8.964;2023-08-08T13:18:06;1.97;;;1.10;;
8317;SDS011;4196;48.926;8.964;2023-08-08T13:20:53;1.43;;;1.10;;
8317;SDS011;4196;48.926;8.964;2023-08-08T13:23:40;2.20;;;1.20;;
8317;SDS011;4196;48.926;8.964;2023-08-08T13:26:27;6.03;;;2.10;;
8317;SDS011;4196;48.926;8.964;2023-08-08T13:29:14;1.30;;;1.20;;
8317;SDS011;4196;48.926;8.964;2023-08-08T13:32:00;1.57;;;1.13;;
8317;SDS011;4196;48.926;8.964;2023-08-08T13:34:47;1.77;;;1.17;;
8317;SDS011;4196;48.926;8.964;2023-08-08T13:37:33;2.50;;;1.13;;
8317;SDS011;4196;48.926;8.964;2023-08-08T13:40:20;2.97;;;1.60;;
8317;SDS011;4196;48.926;8.964;2023-08-08T13:43:06;1.47;;;1.10;;
8317;SDS011;4196;48.926;8.964;2023-08-08T13:45:53;1.20;;;1.00;;
8317;SDS011;4196;48.926;8.964;2023-08-08T13:48:40;2.37;;;1.60;;
8317;SDS011;4196;48.926;8.964;2023-08-08T13:51:26;1.37;;;1.07;;
8317;SDS011;4196;48.926;8.964;2023-08-08T13:54:12;2.30;;;1.17;;
8317;SDS011;4196;48.926;8.964;2023-08-08T13:56:59;1.73;;;1.30;;
8317;SDS011;4196;48.926;8.964;2023-08-08T13:59:45;1.30;;;1.20;;
8317;SDS011;4196;48.926;8.964;2023-08-08T14:02:32;0.93;;;0.90;;
8317;SDS011;4196;48.926;8.964;2023-08-08T14:05:19;1.47;;;1.13;;
8317;SDS011;4196;48.926;8.964;2023-08-08T14:08:06;4.17;;;1.20;;
8317;SDS011;4196;48.926;8.964;2023-08-08T14:10:53;2.70;;;1.30;;
8317;SDS011;4196;48.926;8.964;2023-08-08T14:13:39;3.40;;;1.40;;
8317;SDS011;4196;48.926;8.964;2023-08-08T14:16:27;2.10;;;1.40;;
8317;SDS011;4196;48.926;8.964;2023-08-08T14:19:13;1.10;;;1.00;;
8317;SDS011;4196;48.926;8.964;2023-08-08T14:22:00;3.47;;;1.50;;
8317;SDS011;4196;48.926;8.964;2023-08-08T14:24:47;1.00;;;1.00;;
8317;SDS011;4196;48.926;8.964;2023-08-08T14:27:33;2.50;;;1.10;;
8317;SDS011;4196;48.926;8.964;2023-08-08T14:30:19;2.63;;;1.13;;
8317;SDS011;4196;48.926;8.964;2023-08-08T14:33:07;3.10;;;1.60;;
8317;SDS011;4196;48.926;8.964;2023-08-08T14:35:54;1.30;;;1.20;;
8317;SDS011;4196;48.926;8.964;2023-08-08T14:38:40;3.47;;;1.40;;
8317;SDS011;4196;48.926;8.964;2023-08-08T14:41:27;1.73;;;1.33;;
8317;SDS011;4196;48.926;8.964;2023-08-08T14:44:14;2.17;;;1.27;;
8317;SDS011;4196;48.926;8.964;2023-08-08T14:47:00;2.17;;;1.30;;
8317;SDS011;4196;48.926;8.964;2023-08-08T14:49:47;1.73;;;1.23;;
8317;SDS011;4196;48.926;8.964;2023-08-08T14:52:36;1.13;;;0.90;;
8317;SDS011;4196;48.926;8.964;2023-08-08T14:55:22;1.30;;;1.20;;
8317;SDS011;4196;48.926;8.964;2023-08-08T14:58:09;1.97;;;1.30;;
8317;SDS011;4196;48.926;8.964;2023-08-08T15:00:55;2.03;;;1.00;;
8317;SDS011;4196;48.926;8.964;2023-08-08T15:03:42;3.30;;;1.30;;
8317;SDS011;4196;48.926;8.964;2023-08-08T15:06:29;1.43;;;1.30;;
8317;SDS011;4196;48.926;8.964;2023-08-08T15:09:16;4.37;;;1.30;;
8317;SDS011;4196;48.926;8.964;2023-08-08T15:12:02;1.73;;;1.10;;
8317;SDS011;4196;48.926;8.964;2023-08-08T15:14:49;1.97;;;1.00;;
8317;SDS011;4196;48.926;8.964;2023-08-08T15:17:36;1.53;;;1.10;;
8317;SDS011;4196;48.926;8.964;2023-08-08T15:20:23;2.50;;;1.00;;
8317;SDS011;4196;48.926;8.964;2023-08-08T15:23:10;1.80;;;1.17;;
8317;SDS011;4196;48.926;8.964;2023-08-08T15:25:58;2.00;;;0.90;;
8317;SDS011;4196;48.926;8.964;2023-08-08T15:28:49;1.10;;;1.00;;
8317;SDS011;4196;48.926;8.964;2023-08-08T15:31:36;2.93;;;1.27;;
8317;SDS011;4196;48.926;8.964;2023-08-08T15:34:23;2.20;;;1.03;;
8317;SDS011;4196;48.926;8.964;2023-08-08T15:37:09;2.87;;;1.53;;
8317;SDS011;4196;48.926;8.964;2023-08-08T15:39:57;1.00;;;1.00;;
8317;SDS011;4196;48.926;8.964;2023-08-08T15:42:45;2.80;;;1.83;;
8317;SDS011;4196;48.926;8.964;2023-08-08T15:45:32;1.57;;;1.30;;
8317;SDS011;4196;48.926;8.964;2023-08-08T15:48:19;2.50;;;1.17;;
8317;SDS011;4196;48.926;8.964;2023-08-08T15:51:05;2.73;;;1.50;;
8317;SDS011;4196;48.926;8.964;2023-08-08T15:53:52;1.97;;;1.30;;
8317;SDS011;4196;48.926;8.964;2023-08-08T15:56:38;1.70;;;1.13;;
8317;SDS011;4196;48.926;8.964;2023-08-08T15:59:25;1.03;;;1.03;;
8317;SDS011;4196;48.926;8.964;2023-08-08T16:02:12;1.30;;;1.20;;
8317;SDS011;4196;48.926;8.964;2023-08-08T16:05:01;1.70;;;1.00;;
8317;SDS011;4196;48.926;8.964;2023-08-08T16:07:48;1.67;;;1.20;;
8317;SDS011;4196;48.926;8.964;2023-08-08T16:10:34;1.97;;;1.20;;
8317;SDS011;4196;48.926;8.964;2023-08-08T16:13:21;2.73;;;1.20;;
8317;SDS011;4196;48.926;8.964;2023-08-08T16:16:07;1.50;;;1.40;;
8317;SDS011;4196;48.926;8.964;2023-08-08T16:18:54;1.87;;;1.47;;
8317;SDS011;4196;48.926;8.964;2023-08-08T16:21:40;2.60;;;1.43;;
8317;SDS011;4196;48.926;8.964;2023-08-08T16:24:27;1.80;;;1.43;;
8317;SDS011;4196;48.926;8.964;2023-08-08T16:27:13;1.87;;;1.27;;
8317;SDS011;4196;48.926;8.964;2023-08-08T16:30:00;1.60;;;1.30;;
8317;SDS011;4196;48.926;8.964;2023-08-08T16:32:46;3.33;;;2.10;;
8317;SDS011;4196;48.926;8.964;2023-08-08T16:35:33;2.23;;;1.20;;
8317;SDS011;4196;48.926;8.964;2023-08-08T16:38:20;2.53;;;1.30;;
8317;SDS011;4196;48.926;8.964;2023-08-08T16:41:07;2.20;;;1.00;;
8317;SDS011;4196;48.926;8.964;2023-08-08T16:43:55;1.30;;;1.20;;
8317;SDS011;4196;48.926;8.964;2023-08-08T16:46:47;2.90;;;1.40;;
8317;SDS011;4196;48.926;8.964;2023-08-08T16:49:33;2.23;;;0.97;;
8317;SDS011;4196;48.926;8.964;2023-08-08T16:52:20;2.30;;;1.27;;
8317;SDS011;4196;48.926;8.964;2023-08-08T16:55:06;1.07;;;1.07;;
8317;SDS011;4196;48.926;8.964;2023-08-08T16:57:53;2.00;;;1.20;;
8317;SDS011;4196;48.926;8.964;2023-08-08T17:00:39;2.03;;;1.20;;
8317;SDS011;4196;48.926;8.964;2023-08-08T17:03:26;1.20;;;1.10;;
8317;SDS011;4196;48.926;8.964;2023-08-08T17:06:13;3.13;;;1.40;;
8317;SDS011;4196;48.926;8.964;2023-08-08T17:09:00;2.47;;;1.37;;
8317;SDS011;4196;48.926;8.964;2023-08-08T17:11:47;2.23;;;1.30;;
8317;SDS011;4196;48.926;8.964;2023-08-08T17:14:33;2.03;;;1.27;;
8317;SDS011;4196;48.926;8.964;2023-08-08T17:17:20;1.23;;;1.13;;
8317;SDS011;4196;48.926;8.964;2023-08-08T17:20:07;3.53;;;1.30;;
8317;SDS011;4196;48.926;8.964;2023-08-08T17:22:55;1.20;;;1.10;;
8317;SDS011;4196;48.926;8.964;2023-08-08T17:25:42;1.17;;;1.00;;